Time;durP1;ratioP1;P1;durP2;ratioP2;P2;SDS_P1;SDS_P2;PMS_P1;PMS_P2;Temp;Humidity;BMP_temperature;BMP_pressure;BME280_temperature;BME280_humidity;BME280_pressure;Samples;Min_cycle;Max_cycle;Signal;HPM_P1;HPM_P2
2022/04/05 00:01:12;;;;;;;6.38;5.88;;;4.60;99.90;;;;;;5055299;28;20408;-88
2022/04/05 00:03:39;;;;;;;6.00;5.55;;;4.60;99.90;;;;;;5086390;28;20045;-88
2022/04/05 00:06:06;;;;;;;6.45;5.95;;;4.60;99.90;;;;;;5053464;28;20152;-90
2022/04/05 00:08:33;;;;;;;6.15;5.70;;;4.70;99.90;;;;;;5053917;28;20464;-91
2022/04/05 00:10:59;;;;;;;6.10;5.60;;;4.60;99.90;;;;;;5052575;28;20057;-88
2022/04/05 00:13:26;;;;;;;5.82;5.43;;;4.70;99.90;;;;;;5052585;28;20080;-88
2022/04/05 00:15:53;;;;;;;6.00;5.07;;;4.60;99.90;;;;;;5052975;28;20072;-90
2022/04/05 00:18:20;;;;;;;5.55;5.13;;;4.70;99.90;;;;;;5052683;28;20559;-87
2022/04/05 00:20:46;;;;;;;5.60;5.20;;;4.70;99.90;;;;;;5052614;28;20053;-88
2022/04/05 00:23:14;;;;;;;6.20;5.70;;;4.60;99.90;;;;;;5053389;28;20515;-87
2022/04/05 00:25:42;;;;;;;5.07;4.78;;;4.60;99.90;;;;;;5085593;28;20055;-89
2022/04/05 00:28:09;;;;;;;5.47;5.07;;;4.60;99.90;;;;;;5052557;28;20068;-88
2022/04/05 00:30:35;;;;;;;4.93;4.53;;;4.60;99.90;;;;;;5052893;28;20136;-90
2022/04/05 00:33:02;;;;;;;4.88;4.57;;;4.60;99.90;;;;;;5052404;28;20559;-91
2022/04/05 00:35:29;;;;;;;4.95;4.60;;;4.60;99.90;;;;;;5052545;28;20140;-92
2022/04/05 00:37:56;;;;;;;4.80;4.50;;;4.60;99.90;;;;;;5052061;28;20049;-90
2022/04/05 00:40:22;;;;;;;4.97;4.53;;;4.60;99.90;;;;;;5052523;28;20509;-87
2022/04/05 00:42:49;;;;;;;4.65;4.35;;;4.60;99.90;;;;;;5052433;28;20053;-89
2022/04/05 00:45:16;;;;;;;4.35;4.07;;;4.60;99.90;;;;;;5051826;28;20068;-90
2022/04/05 00:47:48;;;;;;;4.22;3.97;;;4.60;99.90;;;;;;5085551;28;20053;-88
2022/04/05 00:50:21;;;;;;;4.10;3.90;;;4.60;99.90;;;;;;5051937;28;20055;-89
2022/04/05 00:52:48;;;;;;;3.95;3.75;;;4.60;99.90;;;;;;5052082;28;20458;-89
2022/04/05 00:55:21;;;;;;;4.07;3.83;;;4.70;99.90;;;;;;5052991;28;20055;-90
2022/04/05 00:57:53;;;;;;;4.18;3.95;;;4.70;99.90;;;;;;5052336;28;20556;-89
2022/04/05 01:00:20;;;;;;;4.07;3.83;;;4.70;99.90;;;;;;5053161;28;20470;-89
2022/04/05 01:02:48;;;;;;;3.60;3.40;;;4.60;99.90;;;;;;5052462;28;20045;-89
2022/04/05 01:05:19;;;;;;;3.53;3.33;;;4.70;99.90;;;;;;5085316;28;20079;-89
2022/04/05 01:07:47;;;;;;;3.83;3.58;;;4.70;99.90;;;;;;5053533;28;20596;-91
2022/04/05 01:10:14;;;;;;;3.92;3.70;;;4.70;99.90;;;;;;5057175;28;20055;-88
2022/04/05 01:12:41;;;;;;;3.28;3.08;;;4.70;99.90;;;;;;5057173;28;20413;-90
2022/04/05 01:15:25;;;;;;;3.20;3.05;;;4.70;99.90;;;;;;5056163;28;20443;-91
2022/04/05 01:18:09;;;;;;;3.33;3.13;;;4.70;99.90;;;;;;5057492;28;20048;-88
2022/04/05 01:20:36;;;;;;;3.60;3.40;;;4.70;99.90;;;;;;5056421;28;20473;-88
2022/04/05 01:23:03;;;;;;;3.55;3.30;;;4.70;99.90;;;;;;5089358;28;20136;-87
2022/04/05 01:25:29;;;;;;;3.58;3.38;;;4.70;99.90;;;;;;5088954;28;20045;-90
2022/04/05 01:27:57;;;;;;;3.47;3.28;;;4.70;99.90;;;;;;5055850;28;20132;-88
2022/04/05 01:30:23;;;;;;;4.30;4.00;;;4.70;99.90;;;;;;5057169;28;20464;-88
2022/04/05 01:32:50;;;;;;;3.83;3.63;;;4.70;99.90;;;;;;5089387;28;20128;-90
2022/04/05 01:35:17;;;;;;;3.88;3.67;;;4.70;99.90;;;;;;5089349;28;20080;-90
2022/04/05 01:37:44;;;;;;;3.70;3.47;;;4.70;99.90;;;;;;5056849;28;20045;-89
2022/04/05 01:40:11;;;;;;;3.42;3.22;;;4.70;99.90;;;;;;5055707;28;20118;-90
2022/04/05 01:42:38;;;;;;;3.58;3.38;;;4.70;99.90;;;;;;5056562;28;20045;-89
2022/04/05 01:45:06;;;;;;;3.78;3.58;;;4.70;99.90;;;;;;5055491;28;20557;-91
2022/04/05 01:47:32;;;;;;;3.60;3.40;;;4.80;99.90;;;;;;5055572;28;20087;-90
2022/04/05 01:49:59;;;;;;;3.60;3.40;;;4.80;99.90;;;;;;5056543;28;20473;-89
2022/04/05 01:52:26;;;;;;;3.58;3.38;;;4.70;99.90;;;;;;5055176;28;20132;-89
2022/04/05 01:54:53;;;;;;;3.47;3.28;;;4.70;99.90;;;;;;5088536;28;20081;-89
2022/04/05 01:57:20;;;;;;;3.28;3.08;;;4.70;99.90;;;;;;5088814;28;20199;-89
2022/04/05 01:59:47;;;;;;;3.50;3.30;;;4.70;99.90;;;;;;5055224;28;20045;-88
2022/04/05 02:02:14;;;;;;;3.60;3.40;;;4.70;99.90;;;;;;5056145;28;20144;-87
2022/04/05 02:04:41;;;;;;;3.45;3.25;;;4.70;99.90;;;;;;5054428;28;20085;-88
2022/04/05 02:07:13;;;;;;;3.92;3.72;;;4.70;99.90;;;;;;5088051;28;20045;-89
2022/04/05 02:09:40;;;;;;;3.42;3.22;;;4.70;99.90;;;;;;5054704;28;20052;-87
2022/04/05 02:12:09;;;;;;;3.25;3.15;;;4.70;99.90;;;;;;5088381;28;20382;-87
2022/04/05 02:14:37;;;;;;;2.75;2.65;;;4.80;99.90;;;;;;5055021;28;20049;-90
2022/04/05 02:17:08;;;;;;;3.13;2.95;;;4.80;99.90;;;;;;5054938;28;20084;-91
2022/04/05 02:19:36;;;;;;;2.60;2.50;;;4.80;99.90;;;;;;5087420;28;20080;-89
2022/04/05 02:22:03;;;;;;;2.83;2.72;;;4.80;99.90;;;;;;5055610;28;20052;-88
2022/04/05 02:24:30;;;;;;;2.50;2.40;;;4.90;99.90;;;;;;5088033;28;20056;-88
2022/04/05 02:26:57;;;;;;;2.60;2.50;;;4.90;99.90;;;;;;5054647;28;20060;-89
2022/04/05 02:29:24;;;;;;;2.70;2.60;;;4.90;99.90;;;;;;5054677;28;20404;-89
2022/04/05 02:31:51;;;;;;;2.40;2.30;;;4.90;99.90;;;;;;5054259;28;20048;-90
2022/04/05 02:34:17;;;;;;;2.63;2.53;;;4.90;99.90;;;;;;5055294;28;20106;-87
2022/04/05 02:36:44;;;;;;;2.42;2.33;;;4.90;99.90;;;;;;5055290;28;20048;-90
2022/04/05 02:39:12;;;;;;;2.10;2.00;;;4.90;99.90;;;;;;5054294;28;20131;-88
2022/04/05 02:41:38;;;;;;;2.20;2.10;;;4.90;99.90;;;;;;5054628;28;20053;-89
2022/04/05 02:44:06;;;;;;;2.20;2.10;;;4.90;99.90;;;;;;5055073;28;20466;-91
2022/04/05 02:46:33;;;;;;;2.13;2.03;;;4.90;99.90;;;;;;5054166;28;20045;-93
2022/04/05 02:49:00;;;;;;;2.00;1.90;;;5.00;99.90;;;;;;5087505;28;20106;-88
2022/04/05 02:51:27;;;;;;;1.77;1.77;;;5.00;99.90;;;;;;5054601;28;20131;-88
2022/04/05 02:53:54;;;;;;;1.55;1.55;;;5.00;99.90;;;;;;5053590;28;20041;-88
2022/04/05 02:56:20;;;;;;;1.75;1.75;;;4.90;99.90;;;;;;5054068;28;20151;-88
2022/04/05 02:58:48;;;;;;;1.88;1.77;;;4.90;99.90;;;;;;5054905;28;20081;-89
2022/04/05 03:01:15;;;;;;;1.52;1.52;;;4.90;99.90;;;;;;5054078;28;20044;-89
2022/04/05 03:03:42;;;;;;;1.67;1.58;;;5.00;99.90;;;;;;5055035;28;20072;-89
2022/04/05 03:06:10;;;;;;;1.38;1.38;;;5.00;99.90;;;;;;5054440;28;20052;-90
2022/04/05 03:08:38;;;;;;;1.63;1.52;;;5.00;99.90;;;;;;5055299;28;20051;-90
2022/04/05 03:11:05;;;;;;;1.75;1.75;;;5.00;99.90;;;;;;5053896;28;20077;-89
2022/04/05 03:13:32;;;;;;;1.58;1.58;;;4.90;99.90;;;;;;5054923;28;20124;-88
2022/04/05 03:15:59;;;;;;;1.35;1.35;;;4.90;99.90;;;;;;5053736;28;20045;-88
2022/04/05 03:18:27;;;;;;;1.77;1.67;;;4.90;99.90;;;;;;5053918;28;20052;-87
2022/04/05 03:20:54;;;;;;;1.60;1.50;;;4.90;99.90;;;;;;5053654;28;20052;-87
2022/04/05 03:23:21;;;;;;;1.40;1.40;;;4.90;99.90;;;;;;5053988;28;20053;-88
2022/04/05 03:25:49;;;;;;;1.50;1.50;;;4.90;99.90;;;;;;5053358;28;20052;-90
2022/04/05 03:28:18;;;;;;;1.50;1.50;;;4.90;99.90;;;;;;5086923;28;20165;-93
2022/04/05 03:30:47;;;;;;;1.27;1.27;;;4.90;99.90;;;;;;5087326;28;20048;-88
2022/04/05 03:33:15;;;;;;;1.40;1.40;;;4.90;99.90;;;;;;5054221;28;20501;-89
2022/04/05 03:35:42;;;;;;;1.15;1.15;;;4.90;99.90;;;;;;5053491;28;20045;-90
2022/04/05 03:38:09;;;;;;;1.23;1.23;;;4.90;99.90;;;;;;5054454;28;20135;-89
2022/04/05 03:40:35;;;;;;;1.02;1.02;;;4.90;99.90;;;;;;5086930;28;20107;-90
2022/04/05 03:43:02;;;;;;;1.42;1.40;;;5.00;99.90;;;;;;5086833;28;20049;-88
2022/04/05 03:45:30;;;;;;;1.52;1.52;;;5.00;99.90;;;;;;5054018;28;20136;-91
2022/04/05 03:47:57;;;;;;;1.38;1.38;;;5.00;99.90;;;;;;5053127;28;20110;-88
2022/04/05 03:50:23;;;;;;;1.20;1.20;;;5.10;99.90;;;;;;5053899;28;20052;-88
2022/04/05 03:52:50;;;;;;;1.48;1.48;;;5.10;99.90;;;;;;5053154;28;20136;-88
2022/04/05 03:55:17;;;;;;;1.10;1.10;;;5.10;99.90;;;;;;5054206;28;20536;-88
2022/04/05 03:57:44;;;;;;;1.17;1.17;;;5.10;99.90;;;;;;5069767;28;20055;-87
2022/04/05 04:00:11;;;;;;;1.23;1.23;;;5.00;99.90;;;;;;5052815;28;20107;-87
2022/04/05 04:02:38;;;;;;;1.25;1.25;;;5.00;99.90;;;;;;5052952;28;20059;-87
2022/04/05 04:05:06;;;;;;;1.40;1.30;;;5.00;99.90;;;;;;5054348;28;20081;-89
2022/04/05 04:07:38;;;;;;;1.20;1.20;;;5.10;99.90;;;;;;5053188;28;20080;-88
2022/04/05 04:10:06;;;;;;;1.35;1.35;;;5.10;99.90;;;;;;5086066;28;20436;-89
2022/04/05 04:12:33;;;;;;;1.30;1.30;;;5.10;99.90;;;;;;5052604;28;20515;-88
2022/04/05 04:14:59;;;;;;;1.10;1.10;;;5.20;99.90;;;;;;5052564;28;20540;-88
2022/04/05 04:17:26;;;;;;;1.38;1.27;;;5.20;99.90;;;;;;5053236;28;20120;-92
2022/04/05 04:19:53;;;;;;;1.38;1.27;;;5.20;99.90;;;;;;5052837;28;20103;-88
2022/04/05 04:22:20;;;;;;;2.72;1.00;;;5.20;99.90;;;;;;5053591;28;20049;-89
2022/04/05 04:24:48;;;;;;;1.10;1.10;;;5.30;99.90;;;;;;5053344;28;20051;-88
2022/04/05 04:27:15;;;;;;;1.00;1.00;;;5.40;99.90;;;;;;5053434;28;20497;-88
2022/04/05 04:29:42;;;;;;;0.82;0.82;;;5.40;99.90;;;;;;5051584;28;20052;-88
2022/04/05 04:32:08;;;;;;;3.25;1.20;;;5.40;99.90;;;;;;5052429;28;20059;-89
2022/04/05 04:34:35;;;;;;;0.80;0.80;;;5.40;99.90;;;;;;5052334;28;20140;-88
2022/04/05 04:37:05;;;;;;;0.90;0.90;;;5.40;99.90;;;;;;5052250;28;20136;-88
2022/04/05 04:39:33;;;;;;;0.75;0.75;;;5.40;99.90;;;;;;5053235;28;20081;-88
2022/04/05 04:42:00;;;;;;;0.80;0.80;;;5.30;99.90;;;;;;5051777;28;20049;-88
2022/04/05 04:44:27;;;;;;;0.90;0.90;;;5.20;99.90;;;;;;5052156;28;20535;-88
2022/04/05 04:46:54;;;;;;;0.70;0.70;;;5.10;99.90;;;;;;5052685;28;20108;-89
2022/04/05 04:49:22;;;;;;;1.85;0.85;;;5.00;99.90;;;;;;5053454;28;20537;-88
2022/04/05 04:51:49;;;;;;;0.90;0.90;;;5.00;99.90;;;;;;5052719;28;20572;-89
2022/04/05 04:54:15;;;;;;;0.90;0.90;;;4.90;99.90;;;;;;5053210;28;20083;-88
2022/04/05 04:56:42;;;;;;;1.52;0.90;;;4.80;99.90;;;;;;5052098;28;20059;-88
2022/04/05 04:59:09;;;;;;;0.88;0.88;;;4.80;99.90;;;;;;5052260;28;20049;-88
2022/04/05 05:01:36;;;;;;;2.28;0.93;;;4.80;99.90;;;;;;5085173;28;20131;-89
2022/04/05 05:04:03;;;;;;;0.93;0.93;;;4.90;99.90;;;;;;5051827;28;20139;-86
2022/04/05 05:06:30;;;;;;;1.30;1.30;;;4.80;99.90;;;;;;5084892;28;20076;-88
2022/04/05 05:08:56;;;;;;;0.93;0.93;;;4.80;99.90;;;;;;5052661;28;20477;-87
2022/04/05 05:11:23;;;;;;;1.15;1.15;;;4.90;99.90;;;;;;5053680;28;20056;-87
2022/04/05 05:13:50;;;;;;;0.90;0.90;;;5.00;99.90;;;;;;5053590;28;20136;-89
2022/04/05 05:16:17;;;;;;;3.00;1.08;;;4.90;99.90;;;;;;5085266;28;20135;-89
2022/04/05 05:18:43;;;;;;;1.00;1.00;;;5.00;99.90;;;;;;5052068;28;20052;-88
2022/04/05 05:21:10;;;;;;;1.45;1.15;;;5.00;99.90;;;;;;5052181;28;20072;-88
2022/04/05 05:23:37;;;;;;;0.90;0.90;;;5.00;99.90;;;;;;5084974;28;20143;-88
2022/04/05 05:26:04;;;;;;;1.60;1.08;;;5.10;99.90;;;;;;5053119;28;20452;-88
2022/04/05 05:28:31;;;;;;;1.05;0.95;;;5.10;99.90;;;;;;5051771;28;20091;-88
2022/04/05 05:30:58;;;;;;;0.75;0.75;;;5.20;99.90;;;;;;5051863;28;20109;-91
2022/04/05 05:33:27;;;;;;;0.70;0.70;;;5.20;99.90;;;;;;5050853;28;20128;-88
2022/04/05 05:35:54;;;;;;;1.00;1.00;;;5.30;99.90;;;;;;5052274;28;20136;-90
2022/04/05 05:38:21;;;;;;;0.88;0.88;;;5.30;99.90;;;;;;5053108;28;20136;-87
2022/04/05 05:40:48;;;;;;;0.88;0.88;;;5.30;99.90;;;;;;5052139;28;20143;-92
2022/04/05 05:43:14;;;;;;;0.82;0.82;;;5.30;99.90;;;;;;5053124;28;20140;-88
2022/04/05 05:45:41;;;;;;;2.95;1.33;;;5.30;99.90;;;;;;5053463;28;20382;-88
2022/04/05 05:48:09;;;;;;;1.10;1.10;;;5.30;99.90;;;;;;5053172;28;20053;-87
2022/04/05 05:50:37;;;;;;;3.13;1.30;;;5.40;99.90;;;;;;5053175;28;20056;-88
2022/04/05 05:53:04;;;;;;;2.08;1.02;;;5.40;99.90;;;;;;5053271;28;20211;-87
2022/04/05 05:55:32;;;;;;;1.83;1.10;;;5.40;99.90;;;;;;5054451;28;20136;-87
2022/04/05 05:57:59;;;;;;;2.55;1.15;;;5.50;99.90;;;;;;5055584;28;20052;-87
2022/04/05 06:00:26;;;;;;;1.02;1.02;;;5.60;99.90;;;;;;5056085;28;20135;-87
2022/04/05 06:02:56;;;;;;;1.85;0.80;;;5.60;99.90;;;;;;5055989;28;20053;-88
2022/04/05 06:05:24;;;;;;;1.10;1.00;;;5.70;99.90;;;;;;5055510;28;20507;-88
2022/04/05 06:07:51;;;;;;;1.40;1.00;;;5.70;99.90;;;;;;5055751;28;20144;-88
2022/04/05 06:10:18;;;;;;;0.90;0.90;;;5.80;99.90;;;;;;5056547;28;20136;-87
2022/04/05 06:12:48;;;;;;;0.68;0.68;;;5.80;99.90;;;;;;5055450;28;20132;-88
2022/04/05 06:15:16;;;;;;;0.98;0.70;;;5.90;99.90;;;;;;5055732;28;20051;-87
2022/04/05 06:17:45;;;;;;;1.42;0.70;;;5.90;99.90;;;;;;5055560;28;20053;-88
2022/04/05 06:20:14;;;;;;;0.93;0.93;;;6.00;99.90;;;;;;5055252;28;20091;-89
2022/04/05 06:22:42;;;;;;;0.70;0.70;;;6.10;99.90;;;;;;5055527;28;20045;-89
2022/04/05 06:25:11;;;;;;;0.65;0.65;;;6.10;99.90;;;;;;5055360;28;20408;-88
2022/04/05 06:27:38;;;;;;;0.90;0.90;;;6.10;99.90;;;;;;5055036;28;20083;-88
2022/04/05 06:30:06;;;;;;;0.63;0.63;;;6.10;99.90;;;;;;5055047;28;20128;-91
2022/04/05 06:32:33;;;;;;;0.90;0.82;;;6.20;99.90;;;;;;5055882;28;20095;-89
2022/04/05 06:35:01;;;;;;;0.70;0.70;;;6.20;99.90;;;;;;5055962;28;20545;-88
2022/04/05 06:37:28;;;;;;;0.90;0.90;;;6.20;99.90;;;;;;5054821;28;20048;-88
2022/04/05 06:39:54;;;;;;;0.77;0.77;;;6.20;99.90;;;;;;5054652;28;20095;-89
2022/04/05 06:42:22;;;;;;;0.70;0.70;;;6.40;99.90;;;;;;5053656;28;20131;-89
2022/04/05 06:44:49;;;;;;;0.60;0.60;;;6.40;99.90;;;;;;5054372;28;20092;-89
2022/04/05 06:47:15;;;;;;;0.55;0.55;;;6.50;99.90;;;;;;5054447;28;20132;-88
2022/04/05 06:49:42;;;;;;;0.60;0.60;;;6.50;99.90;;;;;;5054468;28;20485;-89
2022/04/05 06:52:09;;;;;;;0.57;0.57;;;6.60;99.90;;;;;;5055351;28;20460;-88
2022/04/05 06:54:36;;;;;;;5.03;4.57;;;6.70;99.90;;;;;;5055185;28;20137;-89
2022/04/05 06:57:03;;;;;;;2.42;2.25;;;6.70;99.90;;;;;;5054109;28;20053;-88
2022/04/05 06:59:30;;;;;;;1.27;0.85;;;6.80;99.90;;;;;;5054095;28;20560;-88
2022/04/05 07:01:57;;;;;;;2.13;2.03;;;6.80;99.90;;;;;;5087338;28;20136;-89
2022/04/05 07:04:24;;;;;;;1.20;0.88;;;6.80;99.90;;;;;;5054989;28;20135;-89
2022/04/05 07:06:51;;;;;;;0.40;0.40;;;6.90;99.90;;;;;;5086898;28;20193;-89
2022/04/05 07:09:18;;;;;;;1.02;0.98;;;6.90;99.90;;;;;;5053819;28;20140;-89
2022/04/05 07:11:45;;;;;;;0.47;0.47;;;6.90;99.90;;;;;;5053796;28;20049;-88
2022/04/05 07:14:12;;;;;;;0.50;0.50;;;7.00;99.90;;;;;;5053826;28;20111;-89
2022/04/05 07:16:39;;;;;;;0.32;0.32;;;7.10;99.90;;;;;;5059220;28;20048;-90
2022/04/05 07:19:06;;;;;;;0.57;0.57;;;7.10;99.90;;;;;;5093446;28;20049;-88
2022/04/05 07:21:33;;;;;;;0.40;0.40;;;7.20;99.90;;;;;;5054354;28;20095;-89
2022/04/05 07:24:00;;;;;;;0.70;0.70;;;7.20;99.90;;;;;;5087037;28;20436;-87
2022/04/05 07:26:26;;;;;;;0.50;0.50;;;7.20;99.90;;;;;;5053160;28;20052;-88
2022/04/05 07:28:53;;;;;;;0.75;0.40;;;7.30;99.90;;;;;;5053561;28;20053;-88
2022/04/05 07:31:25;;;;;;;0.98;0.40;;;7.30;99.90;;;;;;5085415;28;20383;-86
2022/04/05 07:33:52;;;;;;;0.40;0.40;;;7.50;99.90;;;;;;5052955;28;20493;-89
2022/04/05 07:36:19;;;;;;;0.30;0.30;;;7.60;99.90;;;;;;5053049;28;20137;-88
2022/04/05 07:38:45;;;;;;;1.75;0.43;;;7.50;99.90;;;;;;5053254;28;20095;-89
2022/04/05 07:41:13;;;;;;;0.47;0.47;;;7.40;99.90;;;;;;5052915;28;20049;-90
2022/04/05 07:43:39;;;;;;;0.45;0.45;;;7.30;99.90;;;;;;5054446;28;20476;-90
2022/04/05 07:46:06;;;;;;;0.43;0.43;;;7.30;99.90;;;;;;5086767;28;20131;-89
2022/04/05 07:48:33;;;;;;;0.50;0.50;;;7.30;99.90;;;;;;5086609;28;20071;-89
2022/04/05 07:51:01;;;;;;;0.35;0.35;;;7.30;99.90;;;;;;5052630;28;20055;-88
2022/04/05 07:53:28;;;;;;;0.47;0.40;;;7.50;99.90;;;;;;5054361;28;20531;-88
2022/04/05 07:55:56;;;;;;;0.38;0.30;;;7.60;99.90;;;;;;5053627;28;20048;-88
2022/04/05 07:58:24;;;;;;;0.52;0.52;;;7.70;99.90;;;;;;5053270;28;20103;-89
2022/04/05 08:00:52;;;;;;;0.40;0.40;;;7.70;99.90;;;;;;5052914;28;20084;-90
2022/04/05 08:03:19;;;;;;;0.40;0.40;;;7.80;99.90;;;;;;5052900;28;20045;-87
2022/04/05 08:05:46;;;;;;;0.40;0.40;;;7.90;99.90;;;;;;5052546;28;20053;-87
2022/04/05 08:08:14;;;;;;;0.22;0.22;;;7.90;99.90;;;;;;5086055;28;20136;-87
2022/04/05 08:11:00;;;;;;;0.20;0.20;;;7.80;99.90;;;;;;5053815;28;20053;-88
2022/04/05 08:13:27;;;;;;;0.30;0.30;;;7.60;99.90;;;;;;5086050;28;20049;-90
2022/04/05 08:15:55;;;;;;;0.30;0.30;;;7.60;99.90;;;;;;5053540;28;20474;-88
2022/04/05 08:18:22;;;;;;;0.20;0.20;;;7.70;99.90;;;;;;5053109;28;20053;-87
2022/04/05 08:20:49;;;;;;;0.35;0.35;;;7.80;99.90;;;;;;5052626;28;20468;-88
2022/04/05 08:23:16;;;;;;;0.60;0.60;;;7.90;99.90;;;;;;5086458;28;20072;-88
2022/04/05 08:25:43;;;;;;;1.90;1.75;;;8.20;99.90;;;;;;5052650;28;20382;-89
2022/04/05 08:28:10;;;;;;;0.30;0.30;;;8.40;99.90;;;;;;5052497;28;20049;-86
2022/04/05 08:30:36;;;;;;;0.30;0.30;;;8.50;99.90;;;;;;5052217;28;20048;-90
2022/04/05 08:33:03;;;;;;;0.20;0.20;;;8.60;99.90;;;;;;5052011;28;20049;-87
2022/04/05 08:35:30;;;;;;;0.35;0.35;;;8.50;99.90;;;;;;5051089;28;20049;-86
2022/04/05 08:37:57;;;;;;;0.30;0.30;;;8.60;99.90;;;;;;5053942;28;20081;-86
2022/04/05 08:40:26;;;;;;;0.30;0.30;;;8.50;99.90;;;;;;5053614;28;20081;-89
2022/04/05 08:42:55;;;;;;;0.30;0.30;;;8.50;99.90;;;;;;5053340;28;20532;-88
2022/04/05 08:45:23;;;;;;;0.25;0.25;;;8.60;99.90;;;;;;5052240;28;20123;-88
2022/04/05 08:47:53;;;;;;;0.20;0.20;;;8.40;99.90;;;;;;5052139;28;20048;-90
2022/04/05 08:50:23;;;;;;;0.20;0.20;;;8.60;99.90;;;;;;5052352;28;20048;-89
2022/04/05 08:52:51;;;;;;;0.20;0.20;;;8.80;99.90;;;;;;5052473;28;20504;-89
2022/04/05 08:55:18;;;;;;;0.20;0.17;;;8.90;99.90;;;;;;5052463;28;20080;-90
2022/04/05 08:57:46;;;;;;;0.15;0.15;;;9.10;99.90;;;;;;5053162;28;20132;-89
2022/04/05 09:00:15;;;;;;;0.30;0.30;;;9.30;99.90;;;;;;5052212;28;20469;-91
2022/04/05 09:03:05;;;;;;;0.20;0.20;;;9.40;99.90;;;;;;5053949;28;20045;-93
2022/04/05 09:05:39;;;;;;;0.20;0.20;;;9.50;99.90;;;;;;5053978;28;20075;-92
2022/04/05 09:08:22;;;;;;;0.20;0.20;;;9.30;99.90;;;;;;5053126;28;20075;-93
2022/04/05 09:10:54;;;;;;;0.40;0.40;;;9.40;99.90;;;;;;5052840;28;20053;-92
2022/04/05 09:13:25;;;;;;;0.20;0.20;;;9.20;99.90;;;;;;5052618;28;20136;-91
2022/04/05 09:15:56;;;;;;;1.45;0.20;;;8.80;99.90;;;;;;5053775;28;20482;-90
2022/04/05 09:18:47;;;;;;;0.22;0.22;;;8.80;99.90;;;;;;5052981;28;20527;-91
2022/04/05 09:21:14;;;;;;;0.22;0.20;;;9.00;99.90;;;;;;5050909;28;20049;-91
2022/04/05 09:23:43;;;;;;;0.38;0.20;;;9.40;99.90;;;;;;5052964;28;20455;-90
2022/04/05 09:26:17;;;;;;;0.28;0.28;;;9.40;99.90;;;;;;5052376;28;20464;-88
2022/04/05 09:28:49;;;;;;;0.20;0.20;;;9.40;99.90;;;;;;5053541;28;20068;-88
2022/04/05 09:31:19;;;;;;;0.20;0.20;;;9.50;99.90;;;;;;5056264;28;20072;-89
2022/04/05 09:34:08;;;;;;;0.25;0.20;;;9.30;99.90;;;;;;5089539;28;20049;-89
2022/04/05 09:36:37;;;;;;;1.73;0.32;;;9.20;99.90;;;;;;5056443;28;20073;-92
2022/04/05 09:39:17;;;;;;;0.73;0.30;;;8.90;99.90;;;;;;5056164;28;20053;-91
2022/04/05 09:41:45;;;;;;;0.22;0.22;;;8.80;99.90;;;;;;5056103;28;20551;-89
2022/04/05 09:44:13;;;;;;;0.25;0.25;;;8.80;99.90;;;;;;5055952;28;20059;-91
2022/04/05 09:46:40;;;;;;;0.20;0.20;;;8.90;99.90;;;;;;5056744;28;20049;-89
2022/04/05 09:49:12;;;;;;;0.77;0.40;;;9.00;99.90;;;;;;5056998;28;20055;-91
2022/04/05 09:51:44;;;;;;;3.03;0.38;;;8.80;99.90;;;;;;5056047;28;20041;-92
2022/04/05 09:54:22;;;;;;;0.25;0.17;;;8.70;99.90;;;;;;5057290;28;20049;-91
2022/04/05 09:56:49;;;;;;;0.30;0.30;;;8.50;99.90;;;;;;5090336;28;20084;-90
2022/04/05 09:59:18;;;;;;;0.30;0.30;;;8.40;99.90;;;;;;5056126;28;20135;-91
2022/04/05 10:01:47;;;;;;;0.68;0.43;;;8.50;99.90;;;;;;5055824;28;20056;-90
2022/04/05 10:04:16;;;;;;;0.30;0.30;;;8.40;99.90;;;;;;5055543;28;20141;-91
2022/04/05 10:06:48;;;;;;;0.38;0.38;;;8.20;99.90;;;;;;5055505;28;20048;-90
2022/04/05 10:09:17;;;;;;;0.32;0.32;;;7.90;99.90;;;;;;5056572;28;20049;-90
2022/04/05 10:11:45;;;;;;;0.40;0.40;;;7.80;99.90;;;;;;5055241;28;20080;-91
2022/04/05 10:14:20;;;;;;;0.50;0.43;;;7.70;99.90;;;;;;5054975;28;20076;-91
2022/04/05 10:16:49;;;;;;;0.65;0.65;;;7.60;99.90;;;;;;5055199;28;20099;-91
2022/04/05 10:19:17;;;;;;;2.83;0.57;;;7.50;99.90;;;;;;5055136;28;20072;-90
2022/04/05 10:21:45;;;;;;;0.70;0.70;;;7.50;99.90;;;;;;5055245;28;20053;-91
2022/04/05 10:24:12;;;;;;;0.57;0.57;;;7.50;99.90;;;;;;5056125;28;20110;-90
2022/04/05 10:26:41;;;;;;;1.17;0.50;;;7.40;99.90;;;;;;5055399;28;20135;-91
2022/04/05 10:29:15;;;;;;;0.43;0.43;;;7.60;99.90;;;;;;5056153;28;20052;-90
2022/04/05 10:31:51;;;;;;;0.40;0.40;;;7.70;99.90;;;;;;5055341;28;20099;-95
2022/04/05 10:34:30;;;;;;;1.02;0.93;;;7.70;99.90;;;;;;5055039;28;20055;-93
2022/04/05 10:37:05;;;;;;;1.38;0.98;;;7.90;99.90;;;;;;5055033;28;20052;-90
2022/04/05 10:39:32;;;;;;;0.40;0.40;;;8.00;99.90;;;;;;5055806;28;20056;-90
2022/04/05 10:42:08;;;;;;;0.57;0.57;;;8.00;99.90;;;;;;5054173;28;20067;-92
2022/04/05 10:44:40;;;;;;;0.90;0.90;;;8.00;99.90;;;;;;5054739;28;20438;-91
2022/04/05 10:47:08;;;;;;;0.70;0.70;;;8.00;99.90;;;;;;5055585;28;20132;-91
2022/04/05 10:49:56;;;;;;;0.95;0.95;;;7.90;99.90;;;;;;5054838;28;20064;-92
2022/04/05 10:52:28;;;;;;;1.30;1.10;;;7.90;99.90;;;;;;5055565;28;20574;-91
2022/04/05 10:55:01;;;;;;;1.17;1.17;;;7.90;99.90;;;;;;5054051;28;20572;-92
2022/04/05 10:57:34;;;;;;;0.98;0.98;;;7.90;99.90;;;;;;5054716;28;20049;-90
2022/04/05 11:00:07;;;;;;;1.10;1.10;;;8.20;99.90;;;;;;5055909;28;20045;-90
2022/04/05 11:02:52;;;;;;;1.00;1.00;;;8.50;99.90;;;;;;5055439;28;20404;-92
2022/04/05 11:05:19;;;;;;;0.90;0.90;;;8.80;99.90;;;;;;5054899;28;20499;-91
2022/04/05 11:07:52;;;;;;;1.02;1.02;;;8.90;99.90;;;;;;5054367;28;20493;-93
2022/04/05 11:10:30;;;;;;;0.80;0.80;;;8.90;99.90;;;;;;5054451;28;20076;-92
2022/04/05 11:13:12;;;;;;;0.80;0.80;;;8.90;99.90;;;;;;5055502;28;20444;-92
2022/04/05 11:15:48;;;;;;;0.52;0.52;;;8.80;99.90;;;;;;5055204;28;20136;-91
2022/04/05 11:18:21;;;;;;;0.70;0.70;;;8.60;99.90;;;;;;5054476;28;20063;-91
2022/04/05 11:20:51;;;;;;;0.60;0.60;;;8.60;99.90;;;;;;5054336;28;20048;-92
2022/04/05 11:23:19;;;;;;;0.77;0.77;;;8.60;99.90;;;;;;5054070;28;20045;-91
2022/04/05 11:25:47;;;;;;;0.60;0.60;;;8.50;99.90;;;;;;5053985;28;20072;-91
2022/04/05 11:28:15;;;;;;;0.60;0.60;;;8.60;99.90;;;;;;5054578;28;20110;-91
2022/04/05 11:30:49;;;;;;;;;;;8.60;99.90;;;;;;5055687;28;20069;-90
2022/04/05 11:33:31;;;;;;;1.00;1.00;;;8.60;99.90;;;;;;5054063;28;19921;-91
2022/04/05 11:36:10;;;;;;;1.60;1.50;;;8.60;99.90;;;;;;5053680;28;20136;-92
2022/04/05 11:38:38;;;;;;;1.60;1.50;;;8.50;99.90;;;;;;5053601;28;20060;-90
2022/04/05 11:41:19;;;;;;;1.77;1.67;;;8.40;99.90;;;;;;5053685;28;20079;-90
2022/04/05 11:43:49;;;;;;;2.13;2.03;;;8.40;99.90;;;;;;5053973;28;20049;-90
2022/04/05 11:46:18;;;;;;;1.23;1.23;;;8.20;99.90;;;;;;5053327;28;20044;-90
2022/04/05 11:48:53;;;;;;;1.58;1.48;;;8.40;99.90;;;;;;5053178;28;20135;-92
2022/04/05 11:51:25;;;;;;;0.90;0.90;;;8.60;99.90;;;;;;5054299;28;20071;-94
2022/04/05 11:54:08;;;;;;;1.10;1.10;;;8.50;99.90;;;;;;5053158;28;20041;-91
2022/04/05 11:56:35;;;;;;;1.10;1.10;;;8.50;99.90;;;;;;5053488;28;20135;-90
2022/04/05 11:59:04;;;;;;;1.67;1.58;;;8.50;99.90;;;;;;5053303;28;20049;-91
2022/04/05 12:01:36;;;;;;;1.50;1.50;;;8.40;99.90;;;;;;5053310;28;20080;-88
2022/04/05 12:04:35;;;;;;;1.40;1.40;;;8.40;99.90;;;;;;5053639;28;20432;-92
2022/04/05 12:07:03;;;;;;;1.17;1.17;;;8.40;99.90;;;;;;5031984;28;20056;-91
2022/04/05 12:09:31;;;;;;;1.30;1.30;;;8.30;99.90;;;;;;5053377;28;20044;-90
2022/04/05 12:12:03;;;;;;;1.25;1.25;;;8.30;99.90;;;;;;5054544;28;20143;-92
2022/04/05 12:14:32;;;;;;;1.00;1.00;;;8.30;99.90;;;;;;5053324;28;20084;-89
2022/04/05 12:17:01;;;;;;;2.40;1.95;;;8.30;99.90;;;;;;5053937;28;20045;-90
2022/04/05 12:19:41;;;;;;;2.00;1.90;;;8.50;99.90;;;;;;5054301;28;20110;-92
2022/04/05 12:22:16;;;;;;;1.80;1.70;;;8.70;99.90;;;;;;5052510;28;20052;-90
2022/04/05 12:24:50;;;;;;;1.63;1.63;;;8.80;99.90;;;;;;5053878;28;20053;-91
2022/04/05 12:27:21;;;;;;;3.13;1.30;;;8.80;99.90;;;;;;5053084;28;20132;-91
2022/04/05 12:29:48;;;;;;;1.55;1.10;;;8.70;99.90;;;;;;5053184;28;20084;-89
2022/04/05 12:32:22;;;;;;;1.95;1.02;;;8.60;99.90;;;;;;5052910;28;20048;-93
2022/04/05 12:34:49;;;;;;;2.55;1.90;;;8.30;99.90;;;;;;5053056;28;20087;-90
2022/04/05 12:37:16;;;;;;;1.80;1.70;;;8.20;99.90;;;;;;5086277;28;20472;-89
2022/04/05 12:39:45;;;;;;;1.70;1.70;;;8.10;99.90;;;;;;5052657;28;20067;-90
2022/04/05 12:42:12;;;;;;;1.80;1.70;;;8.10;99.90;;;;;;5053470;28;20055;-90
2022/04/05 12:44:42;;;;;;;1.83;1.63;;;8.00;99.90;;;;;;5053307;28;20107;-89
2022/04/05 12:47:25;;;;;;;1.55;1.52;;;8.00;99.90;;;;;;5052402;28;20098;-91
2022/04/05 12:49:57;;;;;;;1.50;1.50;;;8.00;99.90;;;;;;5053071;28;20436;-89
2022/04/05 12:52:33;;;;;;;1.20;1.20;;;8.00;99.90;;;;;;5052670;28;20095;-90
2022/04/05 12:55:18;;;;;;;2.15;1.35;;;8.10;99.90;;;;;;5052500;28;20045;-90
2022/04/05 12:57:52;;;;;;;1.23;1.20;;;8.30;99.90;;;;;;5053490;28;20045;-90
2022/04/05 13:00:23;;;;;;;1.40;1.30;;;8.40;99.90;;;;;;5052815;28;20053;-91
2022/04/05 13:03:01;;;;;;;1.10;1.10;;;8.40;99.90;;;;;;5052641;28;20076;-90
2022/04/05 13:08:26;;;;;;;0.75;0.75;;;9.00;99.90;;;;;;5057479;28;20049;-91
2022/04/05 13:10:53;;;;;;;1.00;1.00;;;9.40;99.90;;;;;;5057781;28;20051;-91